createdAt,value
2018-04-02T00:00:52.626Z,61.68
2018-04-02T00:01:52.614Z,61.87
2018-04-02T00:02:52.644Z,61.77
2018-04-02T00:03:53.533Z,61.77
2018-04-02T00:04:52.710Z,61.58
2018-04-02T00:05:52.727Z,61.87
2018-04-02T00:06:52.757Z,61.77
2018-04-02T00:07:52.790Z,61.39
2018-04-02T00:08:52.866Z,61.58
2018-04-02T00:09:53.110Z,62.06
2018-04-02T00:10:52.877Z,61.68
2018-04-02T00:11:52.904Z,61.58
2018-04-02T00:12:52.936Z,62.06
2018-04-02T00:13:52.983Z,61.97
2018-04-02T00:14:53.010Z,62.45
2018-04-02T00:15:53.044Z,62.26
2018-04-02T00:16:53.327Z,62.35
2018-04-02T00:17:53.087Z,62.54
2018-04-02T00:18:53.128Z,62.06
2018-04-02T00:19:53.167Z,62.45
2018-04-02T00:20:53.209Z,62.48
2018-04-02T00:21:53.212Z,62.35
2018-04-02T00:22:53.260Z,62.54
2018-04-02T00:23:53.529Z,62.93
2018-04-02T00:24:53.316Z,63.12
2018-04-02T00:25:53.357Z,62.93
2018-04-02T00:26:53.350Z,62.93
2018-04-02T00:27:53.434Z,63.12
2018-04-02T00:28:53.415Z,62.74
2018-04-02T00:29:53.447Z,62.83
2018-04-02T00:30:53.730Z,62.74
2018-04-02T00:31:53.506Z,62.74
2018-04-02T00:32:53.543Z,62.83
2018-04-02T00:33:53.568Z,62.83
2018-04-02T00:34:53.591Z,62.77
2018-04-02T00:35:53.635Z,62.74
2018-04-02T00:36:53.654Z,62.74
2018-04-02T00:37:54.014Z,62.83
2018-04-02T00:38:53.710Z,62.74
2018-04-02T00:39:53.737Z,62.74
2018-04-02T00:40:53.850Z,62.77
2018-04-02T00:41:53.802Z,62.93
2018-04-02T00:42:53.894Z,62.74
2018-04-02T00:43:53.894Z,62.74
2018-04-02T00:44:54.196Z,62.96
2018-04-02T00:45:53.953Z,62.64
2018-04-02T00:46:53.952Z,63.22
2018-04-02T00:47:53.982Z,62.93
2018-04-02T00:48:54.110Z,62.83
2018-04-02T00:49:54.054Z,62.93
2018-04-02T00:50:54.069Z,63.12
2018-04-02T00:51:54.408Z,63.22
2018-04-02T00:52:54.199Z,63.02
2018-04-02T00:53:54.223Z,63.15
2018-04-02T00:54:54.197Z,63.15
2018-04-02T00:55:54.216Z,63.22
2018-04-02T00:56:54.257Z,63.12
2018-04-02T00:57:54.317Z,62.83
2018-04-02T00:58:54.557Z,63.02
2018-04-02T00:59:54.375Z,63.22
2018-04-02T01:00:54.368Z,63.22
2018-04-02T01:01:54.397Z,63.12
2018-04-02T01:02:54.433Z,63.02
2018-04-02T01:03:54.493Z,63.15
2018-04-02T01:04:54.517Z,63.22
2018-04-02T01:05:54.780Z,63.22
2018-04-02T01:06:54.664Z,63.12
2018-04-02T01:07:54.583Z,63.02
2018-04-02T01:08:54.608Z,63.12
2018-04-02T01:09:54.644Z,63.12
2018-04-02T01:10:54.663Z,63.02
2018-04-02T01:11:54.692Z,63.12
2018-04-02T01:12:54.972Z,63.02
2018-04-02T01:13:54.756Z,63.41
2018-04-02T01:14:54.784Z,63.22
2018-04-02T01:15:54.822Z,62.83
2018-04-02T01:16:54.852Z,62.83
2018-04-02T01:17:54.921Z,63.31
2018-04-02T01:18:54.967Z,63.22
2018-04-02T01:19:55.202Z,63.12
2018-04-02T01:20:55.059Z,63.12
2018-04-02T01:21:54.997Z,63.12
2018-04-02T01:22:55.020Z,63.31
2018-04-02T01:23:55.051Z,63.02
2018-04-02T01:24:55.190Z,63.12
2018-04-02T01:25:55.109Z,63.12
2018-04-02T01:26:55.526Z,63.12
2018-04-02T01:27:55.232Z,63.02
2018-04-02T01:28:55.205Z,63.41
2018-04-02T01:29:55.263Z,63.31
2018-04-02T01:30:55.308Z,63.41
2018-04-02T01:31:55.291Z,63.41
2018-04-02T01:32:55.663Z,63.31
2018-04-02T01:33:55.356Z,63.31
2018-04-02T01:34:55.378Z,63.41
2018-04-02T01:35:55.452Z,62.93
2018-04-02T01:36:55.436Z,62.83
2018-04-02T01:37:55.477Z,63.22
2018-04-02T01:38:55.744Z,62.64
2018-04-02T01:39:55.528Z,63.12
2018-04-02T01:40:55.556Z,63.31
2018-04-02T01:41:55.621Z,62.93
2018-04-02T01:42:55.729Z,63.02
2018-04-02T01:43:55.661Z,62.83
2018-04-02T01:44:55.930Z,62.64
2018-04-02T01:45:55.721Z,62.93
2018-04-02T01:46:55.746Z,63.02
2018-04-02T01:47:55.787Z,63.02
2018-04-02T01:48:55.803Z,62.83
2018-04-02T01:49:55.827Z,62.83
2018-04-02T01:50:56.112Z,63.02
2018-04-02T01:51:55.886Z,62.93
2018-04-02T01:52:55.923Z,63.02
2018-04-02T01:53:55.946Z,62.74
2018-04-02T01:54:55.974Z,62.54
2018-04-02T01:55:56.065Z,62.74
2018-04-02T01:56:56.404Z,62.74
2018-04-02T01:57:56.068Z,62.74
2018-04-02T01:58:56.095Z,62.83
2018-04-02T01:59:56.138Z,62.64
2018-04-02T02:00:56.161Z,62.74
2018-04-02T02:01:56.201Z,62.64
2018-04-02T02:02:56.538Z,62.74
2018-04-02T02:03:56.263Z,63.02
2018-04-02T02:04:56.284Z,63.41
2018-04-02T02:05:56.299Z,63.22
2018-04-02T02:06:56.447Z,63.41
2018-04-02T02:07:56.370Z,63.41
2018-04-02T02:08:56.639Z,63.02
2018-04-02T02:09:56.418Z,63.02
2018-04-02T02:10:56.453Z,63.02
2018-04-02T02:11:56.488Z,62.74
2018-04-02T02:12:56.534Z,63.12
2018-04-02T02:13:56.563Z,63.02
2018-04-02T02:14:56.815Z,63.12
2018-04-02T02:15:56.611Z,63.12
2018-04-02T02:16:56.636Z,63.12
2018-04-02T02:17:56.677Z,63.12
2018-04-02T02:18:56.695Z,63.02
2018-04-02T02:19:56.717Z,63.12
2018-04-02T02:20:57.104Z,63.12
2018-04-02T02:21:56.776Z,63.60
2018-04-02T02:22:56.973Z,63.60
2018-04-02T02:23:56.886Z,63.60
2018-04-02T02:24:56.870Z,63.22
2018-04-02T02:25:56.932Z,63.51
2018-04-02T02:26:57.179Z,63.22
2018-04-02T02:27:57.009Z,63.89
2018-04-02T02:28:56.982Z,63.60
2018-04-02T02:29:57.031Z,63.12
2018-04-02T02:30:57.154Z,63.31
2018-04-02T02:31:57.130Z,62.83
2018-04-02T02:32:57.361Z,63.51
2018-04-02T02:33:57.138Z,63.22
2018-04-02T02:34:57.190Z,63.12
2018-04-02T02:35:57.237Z,62.83
2018-04-02T02:36:57.223Z,62.93
2018-04-02T02:37:57.297Z,62.93
2018-04-02T02:38:57.587Z,62.93
2018-04-02T02:39:57.322Z,63.02
2018-04-02T02:40:57.356Z,62.83
2018-04-02T02:41:57.370Z,62.74
2018-04-02T02:42:57.428Z,62.83
2018-04-02T02:43:57.444Z,62.83
2018-04-02T02:44:57.467Z,62.83
2018-04-02T02:45:57.788Z,62.93
2018-04-02T02:46:57.542Z,62.93
2018-04-02T02:47:57.561Z,62.74
2018-04-02T02:48:57.591Z,63.31
2018-04-02T02:49:57.610Z,63.31
2018-04-02T02:50:57.681Z,63.31
2018-04-02T02:51:57.732Z,63.31
2018-04-02T02:52:57.953Z,63.12
2018-04-02T02:53:57.767Z,63.31
2018-04-02T02:54:57.762Z,63.12
2018-04-02T02:55:57.807Z,63.12
2018-04-02T02:56:57.859Z,63.89
2018-04-02T02:57:57.912Z,63.60
2018-04-02T02:58:57.880Z,63.31
2018-04-02T02:59:58.215Z,63.60
2018-04-02T03:00:57.936Z,63.60
2018-04-02T03:01:57.991Z,63.70
2018-04-02T03:02:58.379Z,63.51
2018-04-02T03:03:58.022Z,63.51
2018-04-02T03:04:58.054Z,63.60
2018-04-02T03:05:58.086Z,63.60
2018-04-02T03:06:58.362Z,63.89
2018-04-02T03:07:58.146Z,63.99
2018-04-02T03:08:58.175Z,63.70
2018-04-02T03:09:58.234Z,63.60
2018-04-02T03:10:58.250Z,63.79
2018-04-02T03:11:58.274Z,63.70
2018-04-02T03:12:58.291Z,63.70
2018-04-02T03:13:58.621Z,63.60
2018-04-02T03:14:58.349Z,63.70
2018-04-02T03:15:58.549Z,63.89
2018-04-02T03:16:58.413Z,63.89
2018-04-02T03:17:58.447Z,63.99
2018-04-02T03:18:58.542Z,63.31
2018-04-02T03:19:58.508Z,63.79
2018-04-02T03:20:58.808Z,63.70
2018-04-02T03:21:58.603Z,63.51
2018-04-02T03:22:58.692Z,63.89
2018-04-02T03:23:58.659Z,63.51
2018-04-02T03:24:58.647Z,63.60
2018-04-02T03:25:58.679Z,63.51
2018-04-02T03:27:59.069Z,63.51
2018-04-02T03:28:58.797Z,63.60
2018-04-02T03:29:58.796Z,63.51
2018-04-02T03:30:58.825Z,63.70
2018-04-02T03:31:58.871Z,63.70
2018-04-02T03:32:58.888Z,63.70
2018-04-02T03:33:58.919Z,63.51
2018-04-02T03:34:59.251Z,63.70
2018-04-02T03:35:58.998Z,63.79
2018-04-02T03:36:59.000Z,63.51
2018-04-02T03:37:59.058Z,63.51
2018-04-02T03:38:59.100Z,63.79
2018-04-02T03:39:59.090Z,63.70
2018-04-02T03:40:59.123Z,63.51
2018-04-02T03:41:59.409Z,63.79
2018-04-02T03:42:59.188Z,63.79
2018-04-02T03:43:59.218Z,63.70
2018-04-02T03:44:59.242Z,63.60
2018-04-02T03:45:59.268Z,63.60
2018-04-02T03:46:59.319Z,63.60
2018-04-02T03:47:59.334Z,63.60
2018-04-02T03:48:59.697Z,63.60
2018-04-02T03:49:59.487Z,63.70
2018-04-02T03:50:59.430Z,63.70
2018-04-02T03:51:59.452Z,63.51
2018-04-02T03:52:59.478Z,63.60
2018-04-02T03:53:59.505Z,63.89
2018-04-02T03:54:59.538Z,63.51
2018-04-02T03:55:59.818Z,63.41
2018-04-02T03:56:59.594Z,63.70
2018-04-02T03:57:59.636Z,63.70
2018-04-02T03:58:59.653Z,63.51
2018-04-02T03:59:59.712Z,63.70
2018-04-02T04:00:59.774Z,63.70
2018-04-02T04:01:59.993Z,63.60
2018-04-02T04:02:59.784Z,63.70
2018-04-02T04:03:59.805Z,63.89
2018-04-02T04:04:59.844Z,63.99
2018-04-02T04:05:59.865Z,64.18
2018-04-02T04:06:59.888Z,64.18
2018-04-02T04:08:00.176Z,64.18
2018-04-02T04:08:59.982Z,63.89
2018-04-02T04:09:59.984Z,64.18
2018-04-02T04:11:00.027Z,64.08
2018-04-02T04:12:00.043Z,63.99
2018-04-02T04:13:00.079Z,63.99
2018-04-02T04:14:00.410Z,64.08
2018-04-02T04:15:00.138Z,63.99
2018-04-02T04:16:00.189Z,64.08
2018-04-02T04:17:00.199Z,64.08
2018-04-02T04:18:00.219Z,64.28
2018-04-02T04:19:00.254Z,64.18
2018-04-02T04:20:00.578Z,64.28
2018-04-02T04:21:00.353Z,64.18
2018-04-02T04:22:00.334Z,63.79
2018-04-02T04:23:00.366Z,63.89
2018-04-02T04:24:00.400Z,64.18
2018-04-02T04:25:00.450Z,63.99
2018-04-02T04:26:00.706Z,64.28
2018-04-02T04:27:00.496Z,64.18
2018-04-02T04:28:00.514Z,64.18
2018-04-02T04:29:00.545Z,64.28
2018-04-02T04:30:00.571Z,63.99
2018-04-02T04:31:00.803Z,64.08
2018-04-02T04:32:00.939Z,64.08
2018-04-02T04:33:00.700Z,63.99
2018-04-02T04:34:00.701Z,64.08
2018-04-02T04:35:00.750Z,64.18
2018-04-02T04:36:00.750Z,64.08
2018-04-02T04:37:00.786Z,63.99
2018-04-02T04:38:00.820Z,64.08
2018-04-02T04:39:00.863Z,64.18
2018-04-02T04:40:00.910Z,64.18
2018-04-02T04:41:00.915Z,64.08
2018-04-02T04:42:00.929Z,64.08
2018-04-02T04:43:00.977Z,64.08
2018-04-02T04:44:01.294Z,63.99
2018-04-02T04:45:01.018Z,63.89
2018-04-02T04:46:01.047Z,64.18
2018-04-02T04:47:01.075Z,63.99
2018-04-02T04:48:01.129Z,64.18
2018-04-02T04:49:01.165Z,64.08
2018-04-02T04:50:01.477Z,63.89
2018-04-02T04:51:01.280Z,63.89
2018-04-02T04:52:01.224Z,64.18
2018-04-02T04:53:01.261Z,63.89
2018-04-02T04:54:01.292Z,63.89
2018-04-02T04:55:01.327Z,64.08
2018-04-02T04:56:01.659Z,63.89
2018-04-02T04:57:01.447Z,64.08
2018-04-02T04:58:01.457Z,63.89
2018-04-02T04:59:01.464Z,63.99
2018-04-02T05:00:01.505Z,64.08
2018-04-02T05:01:01.494Z,64.08
2018-04-02T05:02:01.771Z,64.18
2018-04-02T05:03:01.666Z,64.08
2018-04-02T05:04:01.579Z,63.99
2018-04-02T05:05:01.621Z,63.89
2018-04-02T05:06:01.694Z,63.99
2018-04-02T05:07:01.728Z,64.18
2018-04-02T05:08:01.997Z,64.28
2018-04-02T05:09:01.737Z,64.08
2018-04-02T05:10:01.807Z,64.28
2018-04-02T05:11:01.787Z,64.08
2018-04-02T05:12:01.818Z,64.08
2018-04-02T05:13:01.847Z,64.08
2018-04-02T05:14:01.928Z,63.99
2018-04-02T05:15:02.156Z,64.08
2018-04-02T05:16:01.949Z,63.99
2018-04-02T05:17:02.051Z,64.08
2018-04-02T05:18:01.999Z,64.18
2018-04-02T05:19:02.028Z,64.18
2018-04-02T05:20:02.058Z,64.18
2018-04-02T05:21:02.088Z,63.99
2018-04-02T05:22:02.367Z,63.99
2018-04-02T05:23:02.143Z,64.37
2018-04-02T05:24:02.234Z,64.37
2018-04-02T05:25:02.224Z,64.28
2018-04-02T05:26:02.232Z,63.99
2018-04-02T05:27:02.316Z,64.28
2018-04-02T05:28:02.333Z,64.18
2018-04-02T05:29:02.642Z,63.99
2018-04-02T05:30:02.415Z,64.08
2018-04-02T05:31:02.438Z,64.08
2018-04-02T05:32:02.432Z,64.18
2018-04-02T05:33:02.512Z,64.18
2018-04-02T05:34:02.483Z,64.28
2018-04-02T05:35:02.496Z,64.08
2018-04-02T05:36:02.871Z,64.18
2018-04-02T05:37:02.573Z,64.18
2018-04-02T05:38:02.603Z,64.18
2018-04-02T05:39:02.618Z,64.18
2018-04-02T05:40:02.644Z,64.08
2018-04-02T05:41:02.699Z,63.99
2018-04-02T05:42:02.772Z,64.18
2018-04-02T05:43:03.019Z,64.08
2018-04-02T05:44:02.797Z,64.37
2018-04-02T05:45:02.810Z,64.37
2018-04-02T05:46:02.852Z,64.28
2018-04-02T05:47:02.855Z,64.08
2018-04-02T05:48:02.923Z,63.99
2018-04-02T05:49:02.911Z,63.89
2018-04-02T05:50:03.293Z,64.28
2018-04-02T05:51:03.153Z,64.08
2018-04-02T05:52:03.019Z,64.08
2018-04-02T05:53:03.040Z,64.28
2018-04-02T05:54:03.095Z,64.28
2018-04-02T05:55:03.108Z,64.28
2018-04-02T05:56:03.154Z,64.18
2018-04-02T05:57:03.460Z,64.37
2018-04-02T05:58:03.188Z,64.37
2018-04-02T05:59:03.222Z,64.47
2018-04-02T06:00:03.243Z,64.18
2018-04-02T06:01:03.282Z,64.18
2018-04-02T06:02:03.298Z,64.08
2018-04-02T06:03:03.329Z,64.08
2018-04-02T06:04:03.674Z,63.99
2018-04-02T06:05:03.417Z,64.08
2018-04-02T06:06:03.418Z,64.08
2018-04-02T06:07:03.464Z,63.99
2018-04-02T06:08:03.502Z,63.89
2018-04-02T06:09:03.521Z,63.99
2018-04-02T06:10:03.539Z,63.99
2018-04-02T06:11:03.876Z,63.99
2018-04-02T06:12:03.615Z,64.08
2018-04-02T06:13:03.661Z,63.89
2018-04-02T06:14:03.657Z,63.89
2018-04-02T06:15:03.685Z,64.08
2018-04-02T06:16:03.720Z,63.89
2018-04-02T06:17:03.807Z,64.28
2018-04-02T06:18:04.139Z,64.18
2018-04-02T06:19:03.898Z,63.89
2018-04-02T06:20:03.845Z,63.89
2018-04-02T06:21:03.915Z,63.70
2018-04-02T06:22:03.916Z,63.79
2018-04-02T06:23:03.946Z,63.60
2018-04-02T06:24:03.961Z,63.60
2018-04-02T06:25:04.233Z,63.70
2018-04-02T06:26:04.015Z,63.60
2018-04-02T06:27:04.087Z,63.60
2018-04-02T06:28:04.091Z,63.79
2018-04-02T06:29:04.104Z,63.89
2018-04-02T06:30:04.132Z,63.60
2018-04-02T06:31:04.420Z,63.60
2018-04-02T06:32:04.190Z,63.60
2018-04-02T06:33:04.223Z,63.79
2018-04-02T06:34:04.277Z,63.60
2018-04-02T06:35:04.288Z,63.70
2018-04-02T06:36:04.391Z,63.51
2018-04-02T06:37:04.655Z,63.64
2018-04-02T06:38:04.430Z,63.73
2018-04-02T06:39:04.410Z,63.54
2018-04-02T06:40:04.436Z,63.82
2018-04-02T06:41:04.461Z,63.54
2018-04-02T06:42:04.507Z,63.54
2018-04-02T06:43:04.884Z,63.64
2018-04-02T06:44:04.550Z,63.82
2018-04-02T06:45:04.648Z,63.64
2018-04-02T06:46:04.713Z,63.73
2018-04-02T06:47:04.708Z,63.54
2018-04-02T06:48:04.691Z,63.82
2018-04-02T06:49:04.952Z,63.64
2018-04-02T06:50:04.746Z,63.64
2018-04-02T06:51:04.769Z,64.21
2018-04-02T06:52:04.801Z,64.12
2018-04-02T06:53:04.854Z,64.21
2018-04-02T06:54:04.887Z,64.12
2018-04-02T06:55:05.190Z,64.50
2018-04-02T06:56:04.946Z,64.59
2018-04-02T06:57:04.966Z,64.40
2018-04-02T06:58:05.053Z,64.50
2018-04-02T06:59:05.033Z,64.21
2018-04-02T07:00:05.111Z,64.12
2018-04-02T07:01:05.137Z,64.12
2018-04-02T07:02:05.094Z,63.92
2018-04-02T07:03:05.122Z,64.12
2018-04-02T07:04:05.163Z,64.02
2018-04-02T07:05:05.182Z,64.21
2018-04-02T07:06:05.268Z,64.02
2018-04-02T07:07:05.508Z,63.73
2018-04-02T07:08:05.306Z,63.73
2018-04-02T07:09:05.307Z,63.82
2018-04-02T07:10:05.336Z,63.73
2018-04-02T07:11:05.370Z,63.82
2018-04-02T07:12:05.412Z,63.73
2018-04-02T07:13:05.731Z,63.82
2018-04-02T07:14:05.463Z,63.82
2018-04-02T07:15:05.487Z,63.64
2018-04-02T07:16:05.531Z,63.54
2018-04-02T07:17:05.548Z,63.73
2018-04-02T07:18:05.576Z,63.73
2018-04-02T07:19:06.005Z,63.54
2018-04-02T07:20:05.668Z,63.64
2018-04-02T07:21:05.662Z,63.15
2018-04-02T07:22:05.697Z,63.34
2018-04-02T07:23:05.742Z,63.25
2018-04-02T07:24:05.756Z,63.44
2018-04-02T07:25:06.034Z,63.25
2018-04-02T07:26:05.819Z,63.06
2018-04-02T07:27:05.854Z,62.87
2018-04-02T07:28:05.874Z,63.15
2018-04-02T07:29:05.911Z,63.09
2018-04-02T07:30:05.956Z,62.96
2018-04-02T07:31:06.267Z,62.77
2018-04-02T07:32:06.001Z,63.15
2018-04-02T07:33:06.105Z,63.15
2018-04-02T07:34:06.058Z,62.96
2018-04-02T07:35:06.096Z,63.15
2018-04-02T07:36:06.124Z,62.96
2018-04-02T07:37:06.410Z,62.70
2018-04-02T07:38:06.188Z,62.87
2018-04-02T07:39:06.209Z,62.90
2018-04-02T07:40:06.248Z,62.90
2018-04-02T07:41:06.274Z,62.80
2018-04-02T07:42:06.306Z,62.90
2018-04-02T07:43:06.634Z,62.80
2018-04-02T07:44:06.363Z,62.32
2018-04-02T07:45:06.394Z,62.51
2018-04-02T07:46:06.424Z,62.60
2018-04-02T07:47:06.453Z,62.51
2018-04-02T07:48:06.485Z,62.32
2018-04-02T07:49:06.511Z,62.22
2018-04-02T07:50:06.865Z,62.32
2018-04-02T07:51:06.574Z,62.32
2018-04-02T07:52:06.603Z,62.60
2018-04-02T07:53:06.634Z,62.60
2018-04-02T07:54:06.685Z,62.32
2018-04-02T07:55:06.701Z,62.32
2018-04-02T07:56:06.764Z,62.32
2018-04-02T07:57:07.065Z,62.41
2018-04-02T07:58:06.795Z,62.60
2018-04-02T07:59:06.821Z,62.32
2018-04-02T08:00:06.895Z,62.03
2018-04-02T08:01:06.880Z,61.93
2018-04-02T08:02:06.909Z,61.83
2018-04-02T08:03:06.942Z,61.83
2018-04-02T08:04:07.276Z,62.12
2018-04-02T08:05:07.002Z,62.22
2018-04-02T08:06:07.078Z,62.22
2018-04-02T08:07:07.086Z,62.22
2018-04-02T08:08:07.095Z,62.12
2018-04-02T08:09:07.129Z,62.12
2018-04-02T08:10:07.159Z,61.83
2018-04-02T08:11:07.433Z,62.12
2018-04-02T08:12:07.271Z,62.41
2018-04-02T08:13:07.260Z,62.32
2018-04-02T08:14:07.290Z,62.32
2018-04-02T08:15:07.307Z,62.51
2018-04-02T08:16:07.414Z,62.41
2018-04-02T08:17:07.369Z,62.12
2018-04-02T08:18:07.709Z,62.32
2018-04-02T08:19:07.430Z,62.12
2018-04-02T08:20:07.478Z,62.22
2018-04-02T08:21:07.494Z,62.12
2018-04-02T08:22:07.549Z,62.41
2018-04-02T08:23:07.553Z,62.32
2018-04-02T08:24:07.592Z,62.12
2018-04-02T08:25:07.868Z,62.22
2018-04-02T08:26:07.645Z,61.93
2018-04-02T08:27:07.679Z,62.22
2018-04-02T08:28:07.713Z,62.12
2018-04-02T08:29:07.773Z,62.06
2018-04-02T08:30:07.770Z,62.12
2018-04-02T08:31:07.804Z,62.35
2018-04-02T08:32:08.086Z,62.15
2018-04-02T08:33:07.865Z,61.96
2018-04-02T08:34:07.890Z,61.38
2018-04-02T08:35:07.922Z,61.77
2018-04-02T08:36:07.953Z,61.96
2018-04-02T08:37:08.003Z,61.68
2018-04-02T08:38:08.016Z,61.58
2018-04-02T08:39:08.345Z,61.58
2018-04-02T08:40:08.075Z,61.58
2018-04-02T08:41:08.118Z,61.58
2018-04-02T08:42:08.142Z,61.77
2018-04-02T08:43:08.184Z,61.96
2018-04-02T08:44:08.207Z,61.68
2018-04-02T08:45:08.279Z,61.68
2018-04-02T08:46:08.634Z,61.38
2018-04-02T08:47:08.306Z,61.19
2018-04-02T08:48:08.333Z,61.38
2018-04-02T08:49:08.394Z,61.68
2018-04-02T08:50:08.391Z,61.29
2018-04-02T08:51:08.416Z,61.19
2018-04-02T08:52:08.477Z,61.38
2018-04-02T08:53:08.807Z,61.29
2018-04-02T08:54:08.529Z,61.10
2018-04-02T08:55:08.542Z,61.19
2018-04-02T08:56:08.576Z,61.00
2018-04-02T08:57:08.605Z,61.00
2018-04-02T08:58:08.658Z,60.90
2018-04-02T08:59:08.664Z,61.00
2018-04-02T09:00:08.997Z,61.19
2018-04-02T09:01:08.731Z,61.29
2018-04-02T09:02:08.771Z,61.10
2018-04-02T09:03:08.788Z,60.80
2018-04-02T09:04:08.828Z,60.52
2018-04-02T09:05:08.901Z,60.80
2018-04-02T09:06:09.215Z,60.90
2018-04-02T09:07:08.973Z,60.90
2018-04-02T09:08:08.950Z,60.90
2018-04-02T09:09:08.986Z,60.90
2018-04-02T09:10:09.013Z,60.80
2018-04-02T09:11:09.075Z,60.71
2018-04-02T09:12:09.372Z,60.90
2018-04-02T09:13:09.168Z,60.61
2018-04-02T09:14:09.134Z,60.80
2018-04-02T09:15:09.164Z,60.74
2018-04-02T09:16:09.201Z,60.93
2018-04-02T09:17:09.226Z,61.00
2018-04-02T09:18:09.521Z,60.90
2018-04-02T09:19:09.393Z,60.61
2018-04-02T09:20:09.321Z,61.03
2018-04-02T09:21:09.356Z,60.90
2018-04-02T09:22:09.383Z,60.52
2018-04-02T09:23:09.413Z,60.93
2018-04-02T09:24:09.699Z,60.61
2018-04-02T09:25:09.479Z,60.83
2018-04-02T09:26:09.507Z,60.93
2018-04-02T09:27:09.557Z,61.13
2018-04-02T09:28:09.570Z,61.22
2018-04-02T09:29:09.606Z,60.93
2018-04-02T09:30:09.886Z,60.71
2018-04-02T09:31:09.679Z,60.93
2018-04-02T09:32:09.699Z,60.93
2018-04-02T09:33:09.734Z,60.64
2018-04-02T09:34:09.760Z,60.93
2018-04-02T09:35:09.793Z,60.93
2018-04-02T09:36:10.124Z,60.35
2018-04-02T09:37:09.857Z,60.26
2018-04-02T09:38:09.890Z,60.35
2018-04-02T09:39:09.919Z,60.06
2018-04-02T09:40:09.954Z,60.35
2018-04-02T09:41:09.997Z,60.26
2018-04-02T09:42:10.281Z,60.45
2018-04-02T09:43:10.093Z,59.97
2018-04-02T09:44:10.081Z,60.06
2018-04-02T09:45:10.168Z,60.16
2018-04-02T09:46:10.145Z,59.87
2018-04-02T09:47:10.172Z,59.87
2018-04-02T09:48:10.514Z,59.48
2018-04-02T09:49:10.232Z,59.48
2018-04-02T09:50:10.265Z,59.39
2018-04-02T09:51:10.300Z,59.58
2018-04-02T09:52:10.337Z,59.30
2018-04-02T09:53:10.359Z,59.58
2018-04-02T09:54:10.653Z,59.39
2018-04-02T09:55:10.421Z,59.48
2018-04-02T09:56:10.454Z,59.39
2018-04-02T09:57:10.494Z,59.10
2018-04-02T09:58:10.519Z,59.00
2018-04-02T09:59:10.585Z,58.62
2018-04-02T10:00:10.833Z,58.91
2018-04-02T10:01:10.616Z,58.62
2018-04-02T10:02:10.650Z,58.62
2018-04-02T10:03:10.731Z,58.72
2018-04-02T10:04:10.719Z,58.65
2018-04-02T10:05:10.820Z,58.07
2018-04-02T10:06:11.086Z,57.97
2018-04-02T10:07:10.813Z,58.17
2018-04-02T10:08:10.835Z,58.45
2018-04-02T10:09:10.882Z,58.07
2018-04-02T10:10:10.925Z,57.68
2018-04-02T10:11:10.944Z,57.39
2018-04-02T10:12:11.221Z,57.59
2018-04-02T10:13:10.998Z,57.68
2018-04-02T10:14:11.028Z,57.59
2018-04-02T10:15:11.068Z,57.78
2018-04-02T10:16:11.109Z,57.68
2018-04-02T10:17:11.128Z,57.59
2018-04-02T10:18:11.459Z,57.49
2018-04-02T10:19:11.189Z,57.59
2018-04-02T10:20:11.239Z,57.39
2018-04-02T10:21:11.257Z,57.20
2018-04-02T10:22:11.285Z,57.10
2018-04-02T10:23:11.316Z,57.29
2018-04-02T10:24:11.352Z,57.29
2018-04-02T10:25:11.686Z,57.29
2018-04-02T10:26:11.439Z,57.10
2018-04-02T10:27:11.446Z,57.20
2018-04-02T10:28:11.498Z,56.91
2018-04-02T10:29:11.515Z,56.81
2018-04-02T10:30:11.544Z,57.10
2018-04-02T10:31:11.581Z,56.91
2018-04-02T10:32:11.950Z,57.10
2018-04-02T10:33:11.640Z,57.01
2018-04-02T10:34:11.672Z,56.91
2018-04-02T10:35:11.707Z,57.01
2018-04-02T10:36:11.742Z,56.91
2018-04-02T10:37:11.781Z,56.91
2018-04-02T10:38:11.801Z,56.74
2018-04-02T10:39:12.089Z,57.01
2018-04-02T10:40:11.868Z,57.10
2018-04-02T10:41:11.900Z,56.91
2018-04-02T10:42:11.937Z,57.01
2018-04-02T10:43:11.962Z,57.01
2018-04-02T10:44:12.001Z,57.10
2018-04-02T10:45:12.079Z,56.84
2018-04-02T10:46:12.359Z,56.65
2018-04-02T10:47:12.092Z,56.74
2018-04-02T10:48:12.143Z,56.84
2018-04-02T10:49:12.166Z,56.62
2018-04-02T10:50:12.189Z,56.94
2018-04-02T10:51:12.239Z,56.94
2018-04-02T10:52:12.270Z,57.04
2018-04-02T10:53:12.610Z,56.94
2018-04-02T10:54:12.341Z,56.74
2018-04-02T10:55:12.351Z,57.04
2018-04-02T10:56:12.450Z,56.43
2018-04-02T10:57:12.431Z,56.26
2018-04-02T10:58:12.462Z,56.36
2018-04-02T10:59:12.488Z,56.26
2018-04-02T11:00:12.764Z,57.23
2018-04-02T11:01:12.554Z,56.46
2018-04-02T11:02:12.590Z,55.98
2018-04-02T11:03:12.614Z,56.36
2018-04-02T11:04:12.682Z,57.14
2018-04-02T11:05:12.684Z,56.36
2018-04-02T11:06:12.746Z,56.46
2018-04-02T11:07:13.054Z,56.16
2018-04-02T11:08:12.815Z,56.36
2018-04-02T11:09:12.840Z,56.16
2018-04-02T11:10:12.846Z,56.65
2018-04-02T11:11:12.888Z,56.07
2018-04-02T11:12:12.907Z,56.16
2018-04-02T11:13:12.938Z,56.36
2018-04-02T11:14:13.289Z,56.36
2018-04-02T11:15:13.021Z,56.26
2018-04-02T11:16:13.036Z,56.36
2018-04-02T11:17:13.072Z,56.46
2018-04-02T11:18:13.106Z,56.46
2018-04-02T11:19:13.133Z,56.74
2018-04-02T11:20:13.166Z,56.16
2018-04-02T11:21:13.200Z,56.16
2018-04-02T11:22:13.239Z,56.07
2018-04-02T11:23:13.284Z,56.16
2018-04-02T11:24:13.329Z,55.88
2018-04-02T11:25:13.347Z,56.16
2018-04-02T11:26:13.361Z,55.98
2018-04-02T11:27:13.650Z,55.78
2018-04-02T11:28:13.490Z,56.07
2018-04-02T11:29:13.467Z,55.68
2018-04-02T11:30:13.500Z,56.26
2018-04-02T11:31:13.526Z,55.98
2018-04-02T11:32:13.560Z,56.16
2018-04-02T11:33:13.597Z,56.07
2018-04-02T11:34:13.898Z,56.16
2018-04-02T11:35:13.699Z,55.98
2018-04-02T11:36:13.704Z,55.59
2018-04-02T11:37:13.722Z,55.59
2018-04-02T11:38:13.758Z,56.16
2018-04-02T11:39:13.796Z,56.26
2018-04-02T11:40:13.832Z,55.59
2018-04-02T11:41:14.182Z,56.36
2018-04-02T11:42:13.888Z,55.49
2018-04-02T11:43:13.959Z,55.88
2018-04-02T11:44:13.967Z,55.59
2018-04-02T11:45:13.986Z,55.68
2018-04-02T11:46:14.026Z,55.49
2018-04-02T11:47:14.405Z,55.52
2018-04-02T11:48:14.099Z,55.90
2018-04-02T11:49:14.122Z,55.49
2018-04-02T11:50:14.151Z,55.52
2018-04-02T11:51:14.214Z,55.23
2018-04-02T11:52:14.231Z,55.49
2018-04-02T11:53:14.659Z,55.40
2018-04-02T11:54:14.303Z,55.13
2018-04-02T11:55:14.316Z,54.94
2018-04-02T11:56:14.365Z,55.13
2018-04-02T11:57:14.416Z,55.30
2018-04-02T11:58:14.432Z,55.33
2018-04-02T11:59:14.712Z,54.91
2018-04-02T12:00:14.489Z,55.01
2018-04-02T12:01:14.542Z,54.91
2018-04-02T12:02:14.565Z,55.20
2018-04-02T12:03:14.589Z,55.20
2018-04-02T12:04:14.612Z,55.10
2018-04-02T12:05:14.893Z,55.20
2018-04-02T12:06:14.677Z,55.04
2018-04-02T12:07:14.710Z,55.30
2018-04-02T12:08:14.744Z,55.49
2018-04-02T12:09:14.780Z,55.30
2018-04-02T12:10:14.814Z,55.20
2018-04-02T12:11:15.146Z,55.20
2018-04-02T12:12:14.876Z,55.13
2018-04-02T12:13:14.922Z,55.42
2018-04-02T12:14:14.946Z,54.94
2018-04-02T12:15:14.998Z,54.53
2018-04-02T12:16:15.004Z,55.10
2018-04-02T12:17:15.291Z,54.72
2018-04-02T12:18:15.074Z,54.43
2018-04-02T12:19:15.116Z,54.72
2018-04-02T12:20:15.166Z,54.72
2018-04-02T12:21:15.192Z,54.91
2018-04-02T12:22:15.206Z,54.91
2018-04-02T12:23:15.485Z,55.30
2018-04-02T12:24:15.281Z,55.40
2018-04-02T12:25:15.313Z,54.82
2018-04-02T12:26:15.347Z,54.82
2018-04-02T12:27:15.377Z,54.43
2018-04-02T12:28:15.415Z,54.72
2018-04-02T12:29:15.707Z,54.91
2018-04-02T12:30:15.468Z,54.91
2018-04-02T12:31:15.514Z,55.20
2018-04-02T12:32:15.532Z,55.30
2018-04-02T12:33:15.568Z,54.91
2018-04-02T12:34:15.602Z,55.20
2018-04-02T12:35:15.933Z,55.20
2018-04-02T12:36:15.673Z,55.10
2018-04-02T12:37:15.697Z,55.01
2018-04-02T12:38:15.749Z,55.01
2018-04-02T12:39:15.765Z,55.10
2018-04-02T12:40:15.796Z,55.49
2018-04-02T12:41:16.217Z,55.40
2018-04-02T12:42:15.859Z,55.49
2018-04-02T12:43:15.947Z,55.40
2018-04-02T12:44:15.959Z,55.68
2018-04-02T12:45:15.959Z,55.59
2018-04-02T12:46:15.990Z,55.40
2018-04-02T12:47:16.323Z,55.20
2018-04-02T12:48:16.072Z,55.68
2018-04-02T12:49:16.099Z,56.36
2018-04-02T12:50:16.136Z,56.36
2018-04-02T12:51:16.215Z,55.68
2018-04-02T12:52:16.186Z,55.01
2018-04-02T12:53:16.468Z,54.62
2018-04-02T12:54:16.249Z,54.53